Kezdőlap
METAR-TAF:

METAR-TAF

Repülőterek :

Kunming, Kína

földrajzi szélesség: 25-01N, földrajzi hosszúság: 102-41E, magasság: 1892 m

Jelenlegi meteorológiai megfigyelések

A jelentés 49 perccel ezelõtt készült, 20:00 UTC
Északkeleti szél 14 kt
Hőmérséklet 10°C
Páratartalom 87%
Légköri nyomás 1025 hPa
Látótávolság 10 km, vagy több
Szórványos felhőzet 2000 lábon
Szakadozott felhőzet 3600 lábon

METAR: ZPPP 172000Z 04007MPS 9999 SCT020 BKN036 10/08 Q1025 NOSIG

Idő: 04:49 (20:49 UTC)

Előrejelzés

A jelentés 7 órával és 38 perccel ezelõtt készült, 13:11 UTC
Az előrejelzés 17-én 18 óra UTC és 18-én 18 óra UTC között érvényes
Északkeleti szél 12 kt
Látótávolság 10 km, vagy több
Szórványos felhőzet 2600 lábon

TAF: ZPPP 171311Z 1718/1818 04006MPS 9999 SCT026 TX12/1808Z TN06/1723Z

Meteorológiai megfigyelések és előrejelzések több, mint 4000 repülőtéren (METAR és TAF jelentéseket).

A térképen piros és sárga pontok jelzik az elérhető meteorológiai állomásokat.

Mozgassa az egeret a pont fölött, hogy megjelenjen az állomás neve.

Azután kattintson az időjárási megfigyelések és előrejelzések megtekintéséhez.

A térkép megváltoztatása: kattintson a fekete keresztel jelölt zöld gombra ráközelítéshez, a vonallal jelölt zöld gombra távolításhoz, vagy a zöld nyilakra a szomszédos térképek eléréséhez.


METAR-TAF: